createdAt,value
2017-04-30T00:01:20.256Z,0
2017-04-30T00:05:45.271Z,0
2017-04-30T00:08:08.635Z,0
2017-04-30T00:12:42.164Z,0
2017-04-30T00:14:57.126Z,0
2017-04-30T00:17:20.483Z,0
2017-04-30T00:19:43.838Z,0
2017-04-30T00:22:07.205Z,0
2017-04-30T00:24:30.578Z,0
2017-04-30T00:28:55.102Z,0
2017-04-30T00:31:18.468Z,0
2017-04-30T00:33:41.813Z,0
2017-04-30T00:36:05.203Z,0
2017-04-30T00:40:29.778Z,0
2017-04-30T00:42:44.756Z,0
2017-04-30T00:45:08.108Z,0
2017-04-30T00:47:31.476Z,0
2017-04-30T00:49:54.855Z,0
2017-04-30T00:52:18.205Z,0
2017-04-30T00:54:41.566Z,0
2017-04-30T00:57:04.952Z,0
2017-04-30T00:59:28.315Z,0
2017-04-30T01:01:51.701Z,0
2017-04-30T01:04:15.036Z,0
2017-04-30T01:06:38.422Z,0
2017-04-30T01:09:01.756Z,0
2017-04-30T01:11:25.140Z,0
2017-04-30T01:13:48.496Z,0
2017-04-30T01:16:11.832Z,0
2017-04-30T01:18:35.126Z,0
2017-04-30T01:20:58.520Z,0
2017-04-30T01:23:21.841Z,0
2017-04-30T01:25:45.193Z,0
2017-04-30T01:28:08.472Z,0
2017-04-30T01:30:31.746Z,0
2017-04-30T01:34:56.154Z,0
2017-04-30T01:37:19.512Z,0
2017-04-30T01:39:42.943Z,0
2017-04-30T01:42:06.235Z,0
2017-04-30T01:44:29.590Z,0
2017-04-30T01:46:52.956Z,0
2017-04-30T01:49:16.253Z,0
2017-04-30T01:51:40.555Z,0
2017-04-30T01:54:02.967Z,0
2017-04-30T01:56:17.923Z,0
2017-04-30T01:58:41.178Z,0
2017-04-30T02:00:47.673Z,0
2017-04-30T02:03:11.029Z,0
2017-04-30T02:07:44.402Z,0
2017-04-30T02:10:07.740Z,0
2017-04-30T02:12:31.075Z,0
2017-04-30T02:14:54.316Z,0
2017-04-30T02:17:17.594Z,0
2017-04-30T02:19:33.353Z,0
2017-04-30T02:21:48.277Z,0
2017-04-30T02:24:03.231Z,0
2017-04-30T02:26:26.576Z,0
2017-04-30T02:28:49.835Z,0
2017-04-30T02:31:13.098Z,0
2017-04-30T02:33:36.357Z,0
2017-04-30T02:35:59.632Z,0
2017-04-30T02:38:22.887Z,0
2017-04-30T02:40:46.152Z,0
2017-04-30T02:43:09.408Z,0
2017-04-30T02:45:24.264Z,0
2017-04-30T02:47:39.119Z,0
2017-04-30T02:50:02.404Z,0
2017-04-30T02:52:17.273Z,0
2017-04-30T02:54:40.526Z,0
2017-04-30T02:56:55.389Z,0
2017-04-30T02:59:10.283Z,0
2017-04-30T03:01:25.129Z,0
2017-04-30T03:03:48.377Z,0
2017-04-30T03:08:04.878Z,0
2017-04-30T03:10:28.172Z,0
2017-04-30T03:14:52.522Z,0
2017-04-30T03:17:15.741Z,0
2017-04-30T03:21:40.230Z,0
2017-04-30T03:24:03.489Z,0
2017-04-30T03:26:26.751Z,0
2017-04-30T03:28:49.909Z,0
2017-04-30T03:31:04.682Z,0
2017-04-30T03:33:19.547Z,0
2017-04-30T03:35:26.037Z,0
2017-04-30T03:37:49.280Z,0
2017-04-30T03:40:12.543Z,0
2017-04-30T03:42:35.810Z,0
2017-04-30T03:44:59.070Z,0
2017-04-30T03:49:23.509Z,0
2017-04-30T03:51:46.730Z,0
2017-04-30T03:54:01.484Z,0
2017-04-30T03:56:24.654Z,0
2017-04-30T03:58:47.911Z,0
2017-04-30T04:01:11.079Z,0
2017-04-30T04:03:34.222Z,0
2017-04-30T04:05:57.383Z,0
2017-04-30T04:08:20.545Z,0
2017-04-30T04:10:43.700Z,5
2017-04-30T04:13:06.871Z,5
2017-04-30T04:15:21.635Z,5
2017-04-30T04:17:44.791Z,5
2017-04-30T04:19:59.562Z,10
2017-04-30T04:22:14.317Z,10
2017-04-30T04:24:37.491Z,10
2017-04-30T04:26:52.252Z,10
2017-04-30T04:29:15.398Z,15
2017-04-30T04:31:38.560Z,15
2017-04-30T04:34:01.717Z,20
2017-04-30T04:38:34.578Z,20
2017-04-30T04:42:58.876Z,25
2017-04-30T04:45:22.096Z,30
2017-04-30T04:47:36.881Z,35
2017-04-30T04:50:00.129Z,40
2017-04-30T04:52:23.397Z,70
2017-04-30T04:56:48.379Z,80
2017-04-30T04:58:55.068Z,85
2017-04-30T05:01:18.705Z,90
2017-04-30T05:03:42.488Z,100
2017-04-30T05:06:06.317Z,105
2017-04-30T05:08:30.236Z,110
2017-04-30T05:13:04.277Z,125
2017-04-30T05:15:28.646Z,135
2017-04-30T05:17:53.167Z,140
2017-04-30T05:20:17.683Z,145
2017-04-30T05:22:42.295Z,160
2017-04-30T05:24:58.537Z,170
2017-04-30T05:27:23.263Z,180
2017-04-30T05:29:48.071Z,190
2017-04-30T05:32:13.011Z,200
2017-04-30T05:34:38.055Z,220
2017-04-30T05:37:03.055Z,240
2017-04-30T05:39:28.197Z,265
2017-04-30T05:41:44.929Z,570
2017-04-30T05:43:53.250Z,1295
2017-04-30T05:46:18.558Z,1395
2017-04-30T05:48:35.492Z,1355
2017-04-30T05:51:00.919Z,1285
2017-04-30T05:53:00.802Z,1385
2017-04-30T05:55:17.867Z,1495
2017-04-30T05:57:43.533Z,1565
2017-04-30T06:00:09.169Z,1530
2017-04-30T06:02:34.888Z,1585
2017-04-30T06:05:00.637Z,1445
2017-04-30T06:11:48.527Z,1645
2017-04-30T06:14:14.633Z,1695
2017-04-30T06:16:32.281Z,1730
2017-04-30T06:18:58.527Z,1570
2017-04-30T06:21:24.792Z,1740
2017-04-30T06:23:51.093Z,1670
2017-04-30T06:26:17.438Z,1675
2017-04-30T06:28:43.677Z,1765
2017-04-30T06:31:09.903Z,1625
2017-04-30T06:33:36.247Z,490
2017-04-30T06:36:02.609Z,480
2017-04-30T06:40:31.432Z,495
2017-04-30T06:44:51.891Z,515
2017-04-30T06:47:18.526Z,610
2017-04-30T06:49:45.062Z,2020
2017-04-30T06:54:14.072Z,1965
2017-04-30T06:56:40.456Z,2075
2017-04-30T06:59:06.736Z,1945
2017-04-30T07:01:32.837Z,2015
2017-04-30T07:03:58.835Z,1935
2017-04-30T07:06:24.752Z,1960
2017-04-30T07:08:50.684Z,2075
2017-04-30T07:11:08.055Z,1965
2017-04-30T07:15:44.496Z,300
2017-04-30T07:20:04.075Z,315
2017-04-30T07:22:29.818Z,350
2017-04-30T07:26:57.177Z,430
2017-04-30T07:29:22.478Z,450
2017-04-30T07:31:47.672Z,450
2017-04-30T07:34:04.267Z,385
2017-04-30T07:36:29.266Z,340
2017-04-30T07:38:54.122Z,330
2017-04-30T07:41:19.007Z,340
2017-04-30T07:43:43.862Z,385
2017-04-30T07:45:51.618Z,425
2017-04-30T07:48:16.340Z,450
2017-04-30T07:52:42.553Z,485
2017-04-30T07:54:58.812Z,530
2017-04-30T07:57:23.490Z,415
2017-04-30T08:03:43.432Z,400
2017-04-30T08:06:08.118Z,360
2017-04-30T08:10:34.378Z,380
2017-04-30T08:12:59.168Z,345
2017-04-30T08:15:23.971Z,360
2017-04-30T08:17:40.286Z,530
2017-04-30T08:20:05.084Z,405
2017-04-30T08:22:29.862Z,510
2017-04-30T08:24:54.671Z,525
2017-04-30T08:27:19.492Z,430
2017-04-30T08:29:44.393Z,415
2017-04-30T08:32:00.822Z,515
2017-04-30T08:34:25.592Z,375
2017-04-30T08:36:50.480Z,295
2017-04-30T08:39:15.290Z,415
2017-04-30T08:41:40.099Z,430
2017-04-30T08:44:04.879Z,465
2017-04-30T08:46:29.679Z,335
2017-04-30T08:50:48.060Z,320
2017-04-30T08:53:12.869Z,290
2017-04-30T08:55:37.642Z,300
2017-04-30T08:57:54.982Z,295
2017-04-30T09:00:11.276Z,325
2017-04-30T09:02:36.063Z,340
2017-04-30T09:05:01.869Z,350
2017-04-30T09:07:26.662Z,355
2017-04-30T09:11:53.495Z,355
2017-04-30T09:14:18.239Z,360
2017-04-30T09:16:43.010Z,270
2017-04-30T09:19:07.816Z,360
2017-04-30T09:21:32.637Z,355
2017-04-30T09:23:57.422Z,355
2017-04-30T09:26:22.204Z,335
2017-04-30T09:28:47.099Z,320
2017-04-30T09:31:11.810Z,305
2017-04-30T09:33:36.886Z,285
2017-04-30T09:36:01.368Z,270
2017-04-30T09:38:26.190Z,260
2017-04-30T09:40:50.990Z,240
2017-04-30T09:43:15.841Z,225
2017-04-30T09:45:56.419Z,220
2017-04-30T09:48:22.086Z,215
2017-04-30T09:50:46.784Z,210
2017-04-30T09:54:47.821Z,200
2017-04-30T09:57:04.069Z,190
2017-04-30T09:59:20.199Z,185
2017-04-30T10:01:44.774Z,175
2017-04-30T10:04:09.374Z,175
2017-04-30T10:06:33.970Z,165
2017-04-30T10:08:58.572Z,160
2017-04-30T10:11:23.152Z,150
2017-04-30T10:13:47.743Z,145
2017-04-30T10:16:12.211Z,140
2017-04-30T10:18:36.709Z,135
2017-04-30T10:21:01.208Z,130
2017-04-30T10:23:17.159Z,130
2017-04-30T10:25:41.562Z,125
2017-04-30T10:29:59.556Z,120
2017-04-30T10:32:24.716Z,120
2017-04-30T10:34:50.139Z,120
2017-04-30T10:37:14.492Z,115
2017-04-30T10:39:38.782Z,115
2017-04-30T10:41:54.678Z,115
2017-04-30T10:44:18.940Z,110
2017-04-30T10:46:43.174Z,105
2017-04-30T10:49:07.411Z,105
2017-04-30T10:51:31.703Z,105
2017-04-30T10:53:55.979Z,100
2017-04-30T10:56:20.282Z,100
2017-04-30T10:58:48.633Z,100
2017-04-30T11:03:20.860Z,95
2017-04-30T11:05:45.140Z,95
2017-04-30T11:08:09.421Z,95
2017-04-30T11:10:34.728Z,95
2017-04-30T11:12:50.578Z,90
2017-04-30T11:15:14.907Z,90
2017-04-30T11:19:15.372Z,90
2017-04-30T11:21:40.656Z,85
2017-04-30T11:24:04.926Z,85
2017-04-30T11:28:48.191Z,85
2017-04-30T11:31:12.496Z,85
2017-04-30T11:33:36.754Z,85
2017-04-30T11:36:00.929Z,80
2017-04-30T11:38:25.139Z,80
2017-04-30T11:40:49.316Z,80
2017-04-30T11:43:05.140Z,80
2017-04-30T11:45:29.384Z,80
2017-04-30T11:47:53.659Z,80
2017-04-30T11:54:22.448Z,80
2017-04-30T11:56:46.681Z,80
2017-04-30T11:59:10.863Z,75
2017-04-30T12:01:26.597Z,75
2017-04-30T12:03:42.400Z,80
2017-04-30T12:06:06.620Z,75
2017-04-30T12:08:30.810Z,75
2017-04-30T12:10:54.973Z,75
2017-04-30T12:13:19.238Z,75
2017-04-30T12:15:43.461Z,75
2017-04-30T12:18:08.214Z,75
2017-04-30T12:20:32.435Z,75
2017-04-30T12:22:56.627Z,75
2017-04-30T12:27:31.305Z,75
2017-04-30T12:29:55.554Z,75
2017-04-30T12:32:11.289Z,75
2017-04-30T12:34:35.524Z,75
2017-04-30T12:36:59.711Z,75
2017-04-30T12:39:23.911Z,75
2017-04-30T12:41:48.201Z,75
2017-04-30T12:44:12.387Z,70
2017-04-30T12:46:36.668Z,75
2017-04-30T12:49:00.949Z,70
2017-04-30T12:51:25.214Z,70
2017-04-30T12:53:49.399Z,70
2017-04-30T12:56:13.567Z,70
2017-04-30T12:58:29.344Z,70
2017-04-30T13:00:53.565Z,70
2017-04-30T13:03:17.741Z,70
2017-04-30T13:05:41.927Z,70
2017-04-30T13:08:06.112Z,70
2017-04-30T13:10:30.290Z,70
2017-04-30T13:12:54.489Z,70
2017-04-30T13:15:18.664Z,70
2017-04-30T13:17:42.859Z,70
2017-04-30T13:20:07.023Z,65
2017-04-30T13:22:31.216Z,65
2017-04-30T13:24:55.418Z,65
2017-04-30T13:27:11.196Z,65
2017-04-30T13:31:11.795Z,65
2017-04-30T13:33:36.056Z,65
2017-04-30T13:36:00.224Z,65
2017-04-30T13:38:15.998Z,65
2017-04-30T13:42:50.621Z,65
2017-04-30T13:45:29.521Z,65
2017-04-30T13:47:53.738Z,65
2017-04-30T13:50:17.944Z,65
2017-04-30T13:52:42.114Z,65
2017-04-30T13:54:57.867Z,65
2017-04-30T13:57:22.105Z,60
2017-04-30T13:59:46.271Z,65
2017-04-30T14:04:13.329Z,65
2017-04-30T14:06:44.194Z,65
2017-04-30T14:09:09.406Z,60
2017-04-30T14:11:33.598Z,60
2017-04-30T14:13:57.765Z,60
2017-04-30T14:16:22.089Z,60
2017-04-30T14:18:47.388Z,60
2017-04-30T14:23:22.160Z,60
2017-04-30T14:25:46.415Z,60
2017-04-30T14:28:10.710Z,60
2017-04-30T14:30:34.958Z,60
2017-04-30T14:34:52.265Z,60
2017-04-30T14:39:29.694Z,60
2017-04-30T14:41:53.907Z,60
2017-04-30T14:44:09.691Z,60
2017-04-30T14:46:33.891Z,60
2017-04-30T14:48:49.668Z,60
2017-04-30T14:51:13.861Z,60
2017-04-30T14:53:38.013Z,60
2017-04-30T14:56:03.240Z,60
2017-04-30T15:00:30.382Z,55
2017-04-30T15:03:01.255Z,55
2017-04-30T15:09:31.375Z,50
2017-04-30T15:11:57.650Z,55
2017-04-30T15:20:35.592Z,50
2017-04-30T15:23:06.489Z,50
2017-04-30T15:25:45.498Z,50
2017-04-30T15:28:09.769Z,55
2017-04-30T15:32:43.769Z,55
2017-04-30T15:35:09.003Z,60
2017-04-30T15:39:10.000Z,60
2017-04-30T15:41:34.250Z,60
2017-04-30T15:44:06.220Z,65
2017-04-30T15:46:30.404Z,65
2017-04-30T15:49:03.303Z,65
2017-04-30T15:51:34.271Z,65
2017-04-30T15:53:59.446Z,60
2017-04-30T15:56:23.641Z,60
2017-04-30T15:58:49.840Z,60
2017-04-30T16:03:15.968Z,55
2017-04-30T16:05:32.752Z,60
2017-04-30T16:07:57.013Z,55
2017-04-30T16:10:21.193Z,55
2017-04-30T16:12:45.361Z,60
2017-04-30T16:15:17.328Z,55
2017-04-30T16:17:49.338Z,55
2017-04-30T16:20:14.625Z,55
2017-04-30T16:22:38.788Z,50
2017-04-30T16:25:02.993Z,50
2017-04-30T16:27:27.196Z,50
2017-04-30T16:29:51.345Z,50
2017-04-30T16:32:15.531Z,50
2017-04-30T16:34:39.687Z,45
2017-04-30T16:37:03.920Z,45
2017-04-30T16:39:28.105Z,45
2017-04-30T16:41:53.202Z,45
2017-04-30T16:44:18.412Z,45
2017-04-30T16:46:51.293Z,45
2017-04-30T16:49:15.461Z,45
2017-04-30T16:51:40.709Z,45
2017-04-30T16:54:04.860Z,45
2017-04-30T16:56:29.042Z,45
2017-04-30T17:02:05.593Z,40
2017-04-30T17:06:06.141Z,45
2017-04-30T17:08:30.261Z,45
2017-04-30T17:10:54.358Z,40
2017-04-30T17:13:10.052Z,45
2017-04-30T17:15:40.832Z,40
2017-04-30T17:17:57.514Z,40
2017-04-30T17:20:21.606Z,40
2017-04-30T17:22:45.697Z,35
2017-04-30T17:25:02.365Z,35
2017-04-30T17:27:18.053Z,35
2017-04-30T17:31:18.266Z,30
2017-04-30T17:35:27.277Z,30
2017-04-30T17:37:52.373Z,25
2017-04-30T17:40:23.107Z,25
2017-04-30T17:42:47.081Z,20
2017-04-30T17:45:11.185Z,20
2017-04-30T17:49:30.579Z,20
2017-04-30T17:51:54.635Z,20
2017-04-30T17:57:30.434Z,15
2017-04-30T18:01:30.649Z,15
2017-04-30T18:03:56.677Z,15
2017-04-30T18:08:22.440Z,10
2017-04-30T18:10:47.629Z,10
2017-04-30T18:13:03.300Z,10
2017-04-30T18:16:15.924Z,5
2017-04-30T18:26:28.667Z,5
2017-04-30T18:28:44.272Z,0
2017-04-30T18:31:09.287Z,0
